Whitby, United Kingdom
Current Conditions -  °F | °C
As of 10:20 AM on Friday 31 Oct 2014 (Local Time) from EGNV Reporting Station
Haze Haze  
Wind Chill: 15°   Ceiling: Unl
Heat Index: 15°   Visibility: 2.1mi
Dew Point: 14°   Wind: 22mph
Humidity: 94%   Direction: 180°S
Pressure: 29.88"   Gusts: NA
Location:  54.48°N, 0.64°W
Report Text: EGNV 311020Z 18019KT 3500 HZ SCT021 15/14 Q1012
Loading
Personal Weather Stations






























Interactive Weather Map
Tropical Storm Tracking
New forecast layout! Learn more

10-Day Weather Forecast

Advertisements
Track Severe Weather on mobile